createdAt,value
2022-08-20T00:00:23.949Z,97098.78
2022-08-20T00:02:56.953Z,97102.69
2022-08-20T00:05:33.470Z,97098.97
2022-08-20T00:08:04.281Z,97096.72
2022-08-20T00:10:35.438Z,97097.16
2022-08-20T00:13:05.590Z,97100.19
2022-08-20T00:15:37.538Z,97104.81
2022-08-20T00:18:07.434Z,97096.53
2022-08-20T00:20:42.552Z,97104.03
2022-08-20T00:23:13.487Z,97100.13
2022-08-20T00:25:44.854Z,97110.41
2022-08-20T00:28:14.845Z,97119.09
2022-08-20T00:30:46.142Z,97110.78
2022-08-20T00:33:17.725Z,97113.19
2022-08-20T00:35:52.211Z,97108.50
2022-08-20T00:40:56.198Z,97102.69
2022-08-20T00:43:34.490Z,97103.50
2022-08-20T00:46:08.633Z,97097.59
2022-08-20T00:48:41.910Z,97095.09
2022-08-20T00:51:27.420Z,97098.69
2022-08-20T00:54:06.525Z,97101.22
2022-08-20T00:56:36.494Z,97104.03
2022-08-20T00:59:12.599Z,97100.41
2022-08-20T01:01:55.541Z,97103.28
2022-08-20T01:04:26.879Z,97106.50
2022-08-20T01:06:58.294Z,97114.53
2022-08-20T01:09:49.820Z,97103.91
2022-08-20T01:12:18.920Z,97105.03
2022-08-20T01:14:49.063Z,97115.78
2022-08-20T01:17:23.751Z,97110.97
2022-08-20T01:19:57.640Z,97108.72
2022-08-20T01:22:54.781Z,97115.78
2022-08-20T01:25:34.667Z,97121.72
2022-08-20T01:28:05.776Z,97121.44
2022-08-20T01:30:36.134Z,97124.47
2022-08-20T01:33:05.437Z,97124.72
2022-08-20T01:35:39.974Z,97118.69
2022-08-20T01:38:10.181Z,97113.72
2022-08-20T01:41:16.234Z,97113.38
2022-08-20T01:43:48.502Z,97109.41
2022-08-20T01:46:20.356Z,97108.91
2022-08-20T01:48:50.043Z,97110.00
2022-08-20T01:51:25.246Z,97100.38
2022-08-20T01:53:59.697Z,97101.63
2022-08-20T01:56:32.668Z,97102.88
2022-08-20T01:59:07.917Z,97115.53
2022-08-20T02:01:46.386Z,97114.56
2022-08-20T02:04:18.129Z,97110.72
2022-08-20T02:06:56.156Z,97098.75
2022-08-20T02:09:28.680Z,97104.31
2022-08-20T02:11:59.033Z,97104.66
2022-08-20T02:14:33.750Z,97102.19
2022-08-20T02:17:02.830Z,97099.28
2022-08-20T02:19:38.631Z,97108.09
2022-08-20T02:22:21.590Z,97103.16
2022-08-20T02:24:51.406Z,97096.38
2022-08-20T02:27:23.612Z,97091.16
2022-08-20T02:29:55.154Z,97100.88
2022-08-20T02:32:33.784Z,97099.84
2022-08-20T02:35:04.444Z,97091.13
2022-08-20T02:37:33.469Z,97088.69
2022-08-20T02:40:03.333Z,97093.41
2022-08-20T02:42:32.444Z,97082.22
2022-08-20T02:45:04.423Z,97079.47
2022-08-20T02:47:33.505Z,97074.84
2022-08-20T02:50:02.549Z,97070.78
2022-08-20T02:52:37.063Z,97071.22
2022-08-20T02:55:07.256Z,97067.97
2022-08-20T02:57:36.629Z,97064.25
2022-08-20T03:00:13.195Z,97063.50
2022-08-20T03:02:42.834Z,97072.72
2022-08-20T03:05:18.285Z,97071.69
2022-08-20T03:07:49.352Z,97073.22
2022-08-20T03:10:19.062Z,97076.22
2022-08-20T03:12:52.740Z,97075.34
2022-08-20T03:15:24.062Z,97065.84
2022-08-20T03:17:53.034Z,97066.06
2022-08-20T03:20:23.900Z,97068.84
2022-08-20T03:22:53.720Z,97064.47
2022-08-20T03:25:23.024Z,97073.69
2022-08-20T03:27:54.253Z,97065.50
2022-08-20T03:30:27.832Z,97073.41
2022-08-20T03:32:57.875Z,97080.28
2022-08-20T03:35:30.244Z,97078.50
2022-08-20T03:37:59.176Z,97078.78
2022-08-20T03:40:32.131Z,97076.03
2022-08-20T03:43:01.490Z,97085.59
2022-08-20T03:45:32.596Z,97083.59
2022-08-20T03:48:01.986Z,97087.44
2022-08-20T03:50:33.689Z,97084.81
2022-08-20T03:53:03.164Z,97087.78
2022-08-20T03:55:33.282Z,97086.19
2022-08-20T03:58:06.419Z,97090.78
2022-08-20T04:00:43.133Z,97090.53
2022-08-20T04:03:12.878Z,97089.63
2022-08-20T04:05:43.230Z,97088.66
2022-08-20T04:08:15.989Z,97088.59
2022-08-20T04:10:46.638Z,97092.88
2022-08-20T04:13:17.293Z,97100.97
2022-08-20T04:15:50.286Z,97116.53
2022-08-20T04:18:24.230Z,97122.59
2022-08-20T04:20:54.606Z,97114.78
2022-08-20T04:23:24.464Z,97113.59
2022-08-20T04:25:56.658Z,97118.84
2022-08-20T04:28:28.557Z,97111.56
2022-08-20T04:31:01.484Z,97107.84
2022-08-20T04:33:33.333Z,97109.16
2022-08-20T04:36:05.311Z,97108.25
2022-08-20T04:38:49.856Z,97104.91
2022-08-20T04:41:23.742Z,97113.97
2022-08-20T04:43:55.416Z,97113.16
2022-08-20T04:46:29.015Z,97118.25
2022-08-20T04:48:58.741Z,97115.59
2022-08-20T04:51:27.906Z,97124.78
2022-08-20T04:53:58.789Z,97135.78
2022-08-20T04:56:31.598Z,97126.06
2022-08-20T04:59:03.248Z,97122.97
2022-08-20T05:01:33.944Z,97119.88
2022-08-20T05:04:03.487Z,97122.63
2022-08-20T05:06:35.163Z,97123.84
2022-08-20T05:09:05.257Z,97119.25
2022-08-20T05:11:36.930Z,97122.19
2022-08-20T05:14:09.484Z,97134.28
2022-08-20T05:16:41.534Z,97135.44
2022-08-20T05:19:13.075Z,97147.78
2022-08-20T05:21:42.259Z,97146.63
2022-08-20T05:24:11.806Z,97143.56
2022-08-20T05:26:41.080Z,97150.88
2022-08-20T05:29:10.153Z,97143.97
2022-08-20T05:31:42.090Z,97142.19
2022-08-20T05:34:14.354Z,97151.66
2022-08-20T05:36:49.207Z,97146.03
2022-08-20T05:39:20.385Z,97150.72
2022-08-20T05:41:51.407Z,97149.91
2022-08-20T05:44:20.848Z,97155.06
2022-08-20T05:46:51.188Z,97158.66
2022-08-20T05:49:23.204Z,97158.44
2022-08-20T05:51:52.302Z,97161.75
2022-08-20T05:54:21.998Z,97165.88
2022-08-20T05:56:51.705Z,97164.91
2022-08-20T05:59:24.192Z,97166.19
2022-08-20T06:01:55.278Z,97164.16
2022-08-20T06:04:27.897Z,97158.44
2022-08-20T06:07:03.820Z,97155.06
2022-08-20T06:09:34.017Z,97155.50
2022-08-20T06:12:06.284Z,97167.13
2022-08-20T06:14:36.537Z,97158.53
2022-08-20T06:17:13.331Z,97157.47
2022-08-20T06:19:44.196Z,97167.13
2022-08-20T06:22:18.573Z,97161.75
2022-08-20T06:24:53.550Z,97162.03
2022-08-20T06:27:23.805Z,97162.59
2022-08-20T06:29:53.921Z,97160.09
2022-08-20T06:32:32.358Z,97162.56
2022-08-20T06:35:03.832Z,97149.81
2022-08-20T06:37:37.000Z,97164.28
2022-08-20T06:40:10.730Z,97161.78
2022-08-20T06:42:47.858Z,97160.34
2022-08-20T06:45:24.502Z,97157.38
2022-08-20T06:47:58.092Z,97152.44
2022-08-20T06:50:30.623Z,97156.22
2022-08-20T06:53:01.169Z,97158.31
2022-08-20T06:55:30.928Z,97166.19
2022-08-20T06:58:02.128Z,97160.75
2022-08-20T07:00:36.147Z,97156.66
2022-08-20T07:03:07.710Z,97166.19
2022-08-20T07:05:42.259Z,97156.66
2022-08-20T07:08:13.809Z,97153.66
2022-08-20T07:10:43.899Z,97143.47
2022-08-20T07:13:15.405Z,97147.75
2022-08-20T07:15:46.007Z,97145.78
2022-08-20T07:18:17.058Z,97150.47
2022-08-20T07:20:58.777Z,97144.16
2022-08-20T07:23:28.440Z,97141.34
2022-08-20T07:25:58.579Z,97147.38
2022-08-20T07:28:31.082Z,97146.22
2022-08-20T07:31:20.404Z,97152.50
2022-08-20T07:33:51.206Z,97154.75
2022-08-20T07:36:22.530Z,97158.09
2022-08-20T07:38:52.729Z,97152.19
2022-08-20T07:41:22.999Z,97157.63
2022-08-20T07:43:52.514Z,97159.09
2022-08-20T07:46:22.610Z,97161.03
2022-08-20T07:48:53.181Z,97164.16
2022-08-20T07:51:24.062Z,97161.78
2022-08-20T07:53:54.265Z,97161.34
2022-08-20T07:56:26.640Z,97152.75
2022-08-20T07:59:02.343Z,97164.44
2022-08-20T08:01:32.979Z,97165.72
2022-08-20T08:04:03.848Z,97162.81
2022-08-20T08:06:33.629Z,97162.50
2022-08-20T08:09:09.259Z,97158.88
2022-08-20T08:11:47.305Z,97165.44
2022-08-20T08:14:23.816Z,97163.03
2022-08-20T08:16:57.644Z,97160.03
2022-08-20T08:19:38.025Z,97158.06
2022-08-20T08:22:12.328Z,97162.53
2022-08-20T08:24:56.836Z,97167.84
2022-08-20T08:27:26.965Z,97174.38
2022-08-20T08:29:55.954Z,97172.97
2022-08-20T08:32:26.474Z,97173.31
2022-08-20T08:34:56.962Z,97164.78
2022-08-20T08:37:30.089Z,97166.28
2022-08-20T08:39:59.905Z,97171.84
2022-08-20T08:42:43.313Z,97175.88
2022-08-20T08:45:16.087Z,97177.19
2022-08-20T08:47:47.141Z,97175.91
2022-08-20T08:50:43.861Z,97171.91
2022-08-20T08:53:20.585Z,97173.97
2022-08-20T08:55:49.741Z,97170.44
2022-08-20T08:58:18.634Z,97169.22
2022-08-20T09:00:52.737Z,97173.22
2022-08-20T09:03:30.831Z,97158.13
2022-08-20T09:06:03.165Z,97163.66
2022-08-20T09:08:38.790Z,97165.91
2022-08-20T09:11:10.631Z,97157.84
2022-08-20T09:13:40.782Z,97165.66
2022-08-20T09:16:09.911Z,97149.06
2022-08-20T09:18:38.893Z,97145.19
2022-08-20T09:21:18.403Z,97140.13
2022-08-20T09:23:47.530Z,97140.59
2022-08-20T09:26:16.487Z,97146.16
2022-08-20T09:28:52.051Z,97132.53
2022-08-20T09:31:24.423Z,97137.78
2022-08-20T09:33:54.273Z,97145.38
2022-08-20T09:36:31.754Z,97141.63
2022-08-20T09:39:02.778Z,97151.16
2022-08-20T09:41:34.490Z,97147.88
2022-08-20T09:44:03.809Z,97149.66
2022-08-20T09:46:33.067Z,97141.38
2022-08-20T09:49:01.704Z,97143.72
2022-08-20T09:51:33.032Z,97146.41
2022-08-20T09:54:02.411Z,97145.41
2022-08-20T09:56:35.871Z,97154.00
2022-08-20T09:59:04.832Z,97152.00
2022-08-20T10:01:34.974Z,97149.41
2022-08-20T10:04:04.466Z,97144.31
2022-08-20T10:06:41.839Z,97145.16
2022-08-20T10:09:10.777Z,97133.97
2022-08-20T10:11:39.620Z,97124.41
2022-08-20T10:14:09.079Z,97135.84
2022-08-20T10:16:38.811Z,97132.78
2022-08-20T10:19:07.913Z,97136.63
2022-08-20T10:21:39.143Z,97135.78
2022-08-20T10:24:08.908Z,97142.16
2022-08-20T10:26:39.668Z,97144.22
2022-08-20T10:29:08.902Z,97155.31
2022-08-20T10:31:37.894Z,97150.31
2022-08-20T10:34:07.142Z,97151.81
2022-08-20T10:36:37.927Z,97138.78
2022-08-20T10:39:07.203Z,97143.75
2022-08-20T10:41:38.958Z,97138.78
2022-08-20T10:44:08.695Z,97136.25
2022-08-20T10:46:37.678Z,97132.19
2022-08-20T10:49:06.514Z,97131.44
2022-08-20T10:51:35.553Z,97131.97
2022-08-20T10:54:06.322Z,97135.97
2022-08-20T10:56:41.489Z,97126.66
2022-08-20T10:59:10.546Z,97131.19
2022-08-20T11:01:39.566Z,97125.13
2022-08-20T11:04:11.711Z,97129.16
2022-08-20T11:06:41.466Z,97138.25
2022-08-20T11:09:12.531Z,97127.94
2022-08-20T11:11:41.478Z,97113.88
2022-08-20T11:14:10.450Z,97102.53
2022-08-20T11:16:39.292Z,97120.66
2022-08-20T11:19:08.952Z,97124.94
2022-08-20T11:21:38.157Z,97124.19
2022-08-20T11:24:09.668Z,97114.38
2022-08-20T11:26:40.459Z,97120.91
2022-08-20T11:29:09.535Z,97133.50
2022-08-20T11:31:38.689Z,97144.28
2022-08-20T11:34:12.170Z,97161.91
2022-08-20T11:36:43.584Z,97173.97
2022-08-20T11:39:12.672Z,97182.69
2022-08-20T11:41:45.731Z,97184.72
2022-08-20T11:44:21.831Z,97201.78
2022-08-20T11:46:52.136Z,97205.78
2022-08-20T11:49:20.975Z,97205.06
2022-08-20T11:51:50.345Z,97198.19
2022-08-20T11:54:19.376Z,97203.53
2022-08-20T11:56:49.664Z,97212.13
2022-08-20T11:59:19.080Z,97204.25
2022-08-20T12:02:02.238Z,97214.47
2022-08-20T12:04:35.001Z,97211.00
2022-08-20T12:07:11.585Z,97213.22
2022-08-20T12:09:43.136Z,97203.13
2022-08-20T12:12:23.966Z,97211.44
2022-08-20T12:14:53.957Z,97213.38
2022-08-20T12:17:28.435Z,97207.53
2022-08-20T12:19:59.681Z,97211.38
2022-08-20T12:22:28.540Z,97226.59
2022-08-20T12:24:58.009Z,97221.06
2022-08-20T12:27:30.984Z,97223.00
2022-08-20T12:30:03.032Z,97229.28
2022-08-20T12:32:33.523Z,97240.19
2022-08-20T12:35:03.298Z,97240.34
2022-08-20T12:37:33.562Z,97234.16
2022-08-20T12:40:07.776Z,97228.84
2022-08-20T12:42:38.530Z,97230.81
2022-08-20T12:45:09.332Z,97220.59
2022-08-20T12:47:41.510Z,97223.75
2022-08-20T12:50:18.260Z,97218.06
2022-08-20T12:52:48.175Z,97221.78
2022-08-20T12:55:20.700Z,97215.31
2022-08-20T12:57:53.839Z,97205.09
2022-08-20T13:00:26.813Z,97208.50
2022-08-20T13:02:58.335Z,97204.25
2022-08-20T13:05:29.367Z,97201.94
2022-08-20T13:07:58.927Z,97201.59
2022-08-20T13:10:31.140Z,97200.34
2022-08-20T13:13:03.019Z,97189.31
2022-08-20T13:15:33.395Z,97192.63
2022-08-20T13:18:04.637Z,97180.88
2022-08-20T13:20:34.813Z,97189.31
2022-08-20T13:23:05.025Z,97187.31
2022-08-20T13:25:34.909Z,97195.69
2022-08-20T13:28:06.636Z,97181.72
2022-08-20T13:30:38.629Z,97179.72
2022-08-20T13:33:07.604Z,97173.72
2022-08-20T13:35:36.687Z,97170.38
2022-08-20T13:38:05.752Z,97167.88
2022-08-20T13:40:34.836Z,97170.69
2022-08-20T13:43:07.353Z,97158.41
2022-08-20T13:45:37.617Z,97156.63
2022-08-20T13:48:14.529Z,97151.84
2022-08-20T13:50:47.392Z,97154.41
2022-08-20T13:53:18.206Z,97148.00
2022-08-20T13:55:47.682Z,97141.44
2022-08-20T13:58:18.880Z,97143.16
2022-08-20T14:00:48.209Z,97144.53
2022-08-20T14:03:20.059Z,97152.75
2022-08-20T14:05:54.487Z,97151.28
2022-08-20T14:08:25.497Z,97161.13
2022-08-20T14:10:56.736Z,97170.69
2022-08-20T14:13:29.293Z,97157.72
2022-08-20T14:15:58.567Z,97157.72
2022-08-20T14:18:27.700Z,97170.59
2022-08-20T14:20:56.502Z,97161.34
2022-08-20T14:23:25.520Z,97162.16
2022-08-20T14:25:54.371Z,97155.09
2022-08-20T14:28:26.711Z,97155.84
2022-08-20T14:30:55.878Z,97157.88
2022-08-20T14:33:26.064Z,97162.13
2022-08-20T14:35:55.804Z,97158.91
2022-08-20T14:38:24.772Z,97164.66
2022-08-20T14:40:53.732Z,97162.88
2022-08-20T14:43:22.886Z,97169.94
2022-08-20T14:45:53.991Z,97174.50
2022-08-20T14:48:25.544Z,97177.94
2022-08-20T14:50:55.902Z,97174.94
2022-08-20T14:53:25.414Z,97182.72
2022-08-20T14:55:54.360Z,97185.78
2022-08-20T14:58:23.230Z,97182.78
2022-08-20T15:00:55.525Z,97191.56
2022-08-20T15:03:30.435Z,97185.78
2022-08-20T15:06:00.532Z,97191.59
2022-08-20T15:08:29.769Z,97200.91
2022-08-20T15:10:58.770Z,97196.03
2022-08-20T15:13:28.606Z,97202.59
2022-08-20T15:15:59.725Z,97199.34
2022-08-20T15:18:29.336Z,97201.13
2022-08-20T15:20:58.883Z,97200.63
2022-08-20T15:23:28.271Z,97207.44
2022-08-20T15:25:57.006Z,97199.41
2022-08-20T15:28:26.231Z,97194.13
2022-08-20T15:30:56.190Z,97194.59
2022-08-20T15:33:26.605Z,97194.34
2022-08-20T15:35:56.200Z,97193.34
2022-08-20T15:38:25.893Z,97192.34
2022-08-20T15:40:56.411Z,97204.66
2022-08-20T15:43:25.410Z,97204.19
2022-08-20T15:45:54.962Z,97213.72
2022-08-20T15:48:35.740Z,97209.94
2022-08-20T15:51:25.869Z,97219.78
2022-08-20T15:54:01.968Z,97221.03
2022-08-20T15:56:53.569Z,97214.22
2022-08-20T16:00:00.159Z,97216.75
2022-08-20T16:03:18.699Z,97223.03
2022-08-20T16:05:57.831Z,97220.78
2022-08-20T16:08:48.370Z,97224.03
2022-08-20T16:11:28.782Z,97217.75
2022-08-20T16:14:04.747Z,97220.47
2022-08-20T16:16:45.608Z,97225.72
2022-08-20T16:19:22.928Z,97220.66
2022-08-20T16:21:55.674Z,97220.44
2022-08-20T16:24:25.587Z,97226.50
2022-08-20T16:27:09.694Z,97219.69
2022-08-20T16:29:59.879Z,97225.44
2022-08-20T16:32:39.161Z,97221.88
2022-08-20T16:35:29.691Z,97221.88
2022-08-20T16:38:21.202Z,97213.03
2022-08-20T16:40:57.447Z,97213.81
2022-08-20T16:43:36.693Z,97217.88
2022-08-20T16:46:14.700Z,97220.38
2022-08-20T16:48:52.650Z,97214.59
2022-08-20T16:51:35.424Z,97207.78
2022-08-20T16:54:07.252Z,97215.66
2022-08-20T16:56:38.829Z,97216.63
2022-08-20T16:59:12.556Z,97210.84
2022-08-20T17:02:07.037Z,97209.59
2022-08-20T17:04:50.444Z,97209.78
2022-08-20T17:07:43.318Z,97210.78
2022-08-20T17:10:23.686Z,97222.09
2022-08-20T17:13:00.058Z,97226.84
2022-08-20T17:15:33.498Z,97223.34
2022-08-20T17:18:24.361Z,97220.09
2022-08-20T17:20:54.247Z,97224.66
2022-08-20T17:23:24.490Z,97222.63
2022-08-20T17:26:01.640Z,97220.84
2022-08-20T17:28:41.451Z,97226.59
2022-08-20T17:31:10.590Z,97229.19
2022-08-20T17:33:41.565Z,97226.19
2022-08-20T17:36:20.230Z,97233.94
2022-08-20T17:38:52.238Z,97232.13
2022-08-20T17:41:27.227Z,97237.72
2022-08-20T17:44:01.099Z,97238.22
2022-08-20T17:46:35.179Z,97240.72
2022-08-20T17:49:09.864Z,97241.72
2022-08-20T17:51:46.478Z,97248.25
2022-08-20T17:54:23.100Z,97245.28
2022-08-20T17:57:00.992Z,97251.22
2022-08-20T18:00:00.865Z,97246.16
2022-08-20T18:02:26.318Z,97251.94
2022-08-20T18:04:57.488Z,97251.91
2022-08-20T18:07:32.059Z,97252.00
2022-08-20T18:10:08.393Z,97255.94
2022-08-20T18:12:51.854Z,97254.72
2022-08-20T18:15:25.035Z,97250.97
2022-08-20T18:18:20.006Z,97253.72
2022-08-20T18:21:22.621Z,97253.91
2022-08-20T18:23:59.203Z,97251.94
2022-08-20T18:26:32.167Z,97248.59
2022-08-20T18:29:11.066Z,97257.31
2022-08-20T18:31:47.451Z,97257.19
2022-08-20T18:34:23.720Z,97261.09
2022-08-20T18:36:59.209Z,97257.25
2022-08-20T18:39:34.123Z,97264.03
2022-08-20T18:42:06.239Z,97274.91
2022-08-20T18:44:46.056Z,97269.25
2022-08-20T18:47:24.179Z,97271.47
2022-08-20T18:50:20.174Z,97270.03
2022-08-20T18:52:52.004Z,97270.09
2022-08-20T18:55:33.399Z,97262.31
2022-08-20T18:58:06.753Z,97264.34
2022-08-20T19:00:46.360Z,97257.66
2022-08-20T19:03:23.865Z,97263.00
2022-08-20T19:06:11.175Z,97255.19
2022-08-20T19:08:49.468Z,97260.31
2022-08-20T19:11:54.765Z,97259.03
2022-08-20T19:14:58.440Z,97260.66
2022-08-20T19:17:47.987Z,97256.00
2022-08-20T19:20:23.447Z,97260.28
2022-08-20T19:22:55.852Z,97262.03
2022-08-20T19:25:30.472Z,97260.97
2022-08-20T19:28:08.704Z,97254.13
2022-08-20T19:30:44.819Z,97254.84
2022-08-20T19:33:15.519Z,97254.31
2022-08-20T19:36:14.405Z,97260.81
2022-08-20T19:38:48.688Z,97267.50
2022-08-20T19:41:30.893Z,97268.00
2022-08-20T19:44:01.650Z,97271.22
2022-08-20T19:46:36.005Z,97267.69
2022-08-20T19:49:19.702Z,97270.06
2022-08-20T19:52:04.447Z,97268.19
2022-08-20T19:54:34.753Z,97263.31
2022-08-20T19:57:08.503Z,97263.06
2022-08-20T19:59:37.937Z,97271.22
2022-08-20T20:02:20.313Z,97263.53
2022-08-20T20:04:55.829Z,97273.06
2022-08-20T20:07:31.005Z,97272.09
2022-08-20T20:10:00.575Z,97280.22
2022-08-20T20:12:29.905Z,97274.59
2022-08-20T20:14:59.287Z,97276.09
2022-08-20T20:17:36.794Z,97272.78
2022-08-20T20:20:23.537Z,97274.81
2022-08-20T20:22:57.178Z,97276.56
2022-08-20T20:25:42.075Z,97272.44
2022-08-20T20:28:15.851Z,97275.81
2022-08-20T20:30:45.520Z,97270.19
2022-08-20T20:33:18.677Z,97269.28
2022-08-20T20:35:49.538Z,97272.00
2022-08-20T20:38:29.202Z,97269.72
2022-08-20T20:41:01.607Z,97263.31
2022-08-20T20:43:34.005Z,97261.06
2022-08-20T20:46:10.739Z,97268.94
2022-08-20T20:48:48.513Z,97252.69
2022-08-20T20:51:27.149Z,97260.97
2022-08-20T20:54:00.113Z,97262.19
2022-08-20T20:56:35.189Z,97262.88
2022-08-20T20:59:07.448Z,97257.47
2022-08-20T21:01:50.014Z,97267.44
2022-08-20T21:04:21.667Z,97266.63
2022-08-20T21:06:54.210Z,97263.34
2022-08-20T21:09:25.832Z,97259.00
2022-08-20T21:11:54.930Z,97265.16
2022-08-20T21:14:24.220Z,97261.88
2022-08-20T21:16:54.084Z,97268.19
2022-08-20T21:19:23.534Z,97261.66
2022-08-20T21:21:54.144Z,97254.00
2022-08-20T21:24:23.709Z,97258.34
2022-08-20T21:26:54.021Z,97256.78
2022-08-20T21:29:32.303Z,97256.75
2022-08-20T21:32:01.667Z,97253.06
2022-08-20T21:34:30.644Z,97257.38
2022-08-20T21:37:01.217Z,97245.13
2022-08-20T21:39:30.681Z,97255.97
2022-08-20T21:42:03.536Z,97248.09
2022-08-20T21:44:33.859Z,97256.94
2022-08-20T21:47:03.430Z,97251.53
2022-08-20T21:49:33.780Z,97249.44
2022-08-20T21:52:05.852Z,97253.84
2022-08-20T21:54:35.168Z,97256.28
2022-08-20T21:57:07.798Z,97249.19
2022-08-20T21:59:44.521Z,97249.28
2022-08-20T22:02:13.883Z,97248.22
2022-08-20T22:04:42.974Z,97247.69
2022-08-20T22:07:15.831Z,97255.00
2022-08-20T22:09:45.340Z,97260.75
2022-08-20T22:12:20.357Z,97260.25
2022-08-20T22:14:49.888Z,97264.88
2022-08-20T22:17:19.008Z,97267.56
2022-08-20T22:19:48.580Z,97261.50
2022-08-20T22:22:21.887Z,97271.66
2022-08-20T22:24:51.010Z,97271.03
2022-08-20T22:27:20.280Z,97272.53
2022-08-20T22:29:49.347Z,97266.03
2022-08-20T22:32:19.779Z,97273.84
2022-08-20T22:35:03.453Z,97266.16
2022-08-20T22:37:34.945Z,97267.19
2022-08-20T22:40:06.063Z,97266.38
2022-08-20T22:42:35.207Z,97265.59
2022-08-20T22:45:04.729Z,97268.75
2022-08-20T22:47:43.169Z,97254.97
2022-08-20T22:50:14.222Z,97258.09
2022-08-20T22:52:45.496Z,97266.47
2022-08-20T22:55:14.599Z,97258.59
2022-08-20T22:57:43.802Z,97256.59
2022-08-20T23:00:19.329Z,97249.72
2022-08-20T23:02:53.673Z,97242.19
2022-08-20T23:05:25.579Z,97240.19
2022-08-20T23:07:58.670Z,97236.31
2022-08-20T23:10:30.984Z,97236.50
2022-08-20T23:13:00.023Z,97232.53
2022-08-20T23:15:31.084Z,97236.50
2022-08-20T23:18:13.245Z,97240.94
2022-08-20T23:20:45.783Z,97236.81
2022-08-20T23:23:16.264Z,97232.00
2022-08-20T23:25:45.272Z,97236.63
2022-08-20T23:28:14.160Z,97223.22
2022-08-20T23:30:43.511Z,97237.19
2022-08-20T23:33:12.826Z,97232.25
2022-08-20T23:35:43.023Z,97228.19
2022-08-20T23:38:12.565Z,97219.88
2022-08-20T23:40:44.537Z,97223.31
2022-08-20T23:43:13.928Z,97221.75
2022-08-20T23:45:43.316Z,97211.19
2022-08-20T23:48:12.479Z,97208.75
2022-08-20T23:50:41.760Z,97208.31
2022-08-20T23:53:10.706Z,97203.28
2022-08-20T23:55:39.761Z,97207.75
2022-08-20T23:58:10.487Z,97205.44
